createdAt,value
2017-11-01T00:00:04.584Z,1015.22
2017-11-01T00:01:04.526Z,1015.16
2017-11-01T00:02:04.460Z,1015.18
2017-11-01T00:03:04.403Z,1015.23
2017-11-01T00:04:04.346Z,1015.16
2017-11-01T00:05:04.283Z,1015.21
2017-11-01T00:06:04.227Z,1015.22
2017-11-01T00:07:04.168Z,1015.18
2017-11-01T00:08:04.109Z,1015.20
2017-11-01T00:09:04.045Z,1015.17
2017-11-01T00:10:03.998Z,1015.11
2017-11-01T00:11:03.944Z,1015.15
2017-11-01T00:12:03.869Z,1015.14
2017-11-01T00:13:03.817Z,1015.12
2017-11-01T00:14:03.744Z,1015.08
2017-11-01T00:15:03.679Z,1015.10
2017-11-01T00:16:03.635Z,1015.11
2017-11-01T00:17:03.566Z,1015.14
2017-11-01T00:18:03.505Z,1015.12
2017-11-01T00:19:03.444Z,1015.13
2017-11-01T00:20:03.394Z,1015.09
2017-11-01T00:21:03.335Z,1015.12
2017-11-01T00:22:03.277Z,1015.06
2017-11-01T00:23:03.224Z,1015.10
2017-11-01T00:24:03.146Z,1015.07
2017-11-01T00:25:03.093Z,1015.04
2017-11-01T00:26:03.030Z,1015.08
2017-11-01T00:27:02.965Z,1015.07
2017-11-01T00:28:02.900Z,1015.00
2017-11-01T00:29:02.851Z,1015.05
2017-11-01T00:30:02.784Z,1015.03
2017-11-01T00:31:02.724Z,1015.02
2017-11-01T00:32:02.669Z,1015.02
2017-11-01T00:33:02.612Z,1014.96
2017-11-01T00:34:02.556Z,1015.02
2017-11-01T00:35:02.502Z,1015.02
2017-11-01T00:36:02.434Z,1015.01
2017-11-01T00:37:02.367Z,1014.95
2017-11-01T00:38:02.307Z,1014.98
2017-11-01T00:39:02.253Z,1014.98
2017-11-01T00:40:02.183Z,1014.92
2017-11-01T00:41:02.125Z,1014.91
2017-11-01T00:42:02.066Z,1014.93
2017-11-01T00:43:02.010Z,1014.92
2017-11-01T00:44:01.947Z,1014.87
2017-11-01T00:45:01.892Z,1014.85
2017-11-01T00:46:01.841Z,1014.87
2017-11-01T00:47:01.781Z,1014.87
2017-11-01T00:48:01.726Z,1014.82
2017-11-01T00:49:01.648Z,1014.81
2017-11-01T00:50:01.590Z,1014.81
2017-11-01T00:51:01.527Z,1014.80
2017-11-01T00:52:01.469Z,1014.75
2017-11-01T00:53:01.403Z,1014.80
2017-11-01T00:54:01.343Z,1014.80
2017-11-01T00:55:01.286Z,1014.82
2017-11-01T00:56:01.228Z,1014.78
2017-11-01T00:57:01.170Z,1014.81
2017-11-01T00:58:01.115Z,1014.76
2017-11-01T00:59:01.060Z,1014.80
2017-11-01T01:00:01.005Z,1014.74
2017-11-01T01:01:00.928Z,1014.71
2017-11-01T01:02:00.868Z,1014.74
2017-11-01T01:03:00.844Z,1014.71
2017-11-01T01:04:00.752Z,1014.71
2017-11-01T01:05:00.682Z,1014.71
2017-11-01T01:06:00.627Z,1014.73
2017-11-01T01:07:00.569Z,1014.68
2017-11-01T01:08:00.515Z,1014.69
2017-11-01T01:09:00.450Z,1014.63
2017-11-01T01:10:00.409Z,1014.69
2017-11-01T01:11:00.340Z,1014.63
2017-11-01T01:12:00.276Z,1014.66
2017-11-01T01:13:00.211Z,1014.61
2017-11-01T01:14:00.150Z,1014.61
2017-11-01T01:15:00.089Z,1014.56
2017-11-01T01:16:00.053Z,1014.60
2017-11-01T01:16:59.965Z,1014.57
2017-11-01T01:17:59.905Z,1014.58
2017-11-01T01:18:59.851Z,1014.60
2017-11-01T01:19:59.790Z,1014.59
2017-11-01T01:20:59.730Z,1014.56
2017-11-01T01:21:59.672Z,1014.54
2017-11-01T01:22:59.618Z,1014.60
2017-11-01T01:23:59.563Z,1014.57
2017-11-01T01:24:59.513Z,1014.60
2017-11-01T01:25:59.431Z,1014.57
2017-11-01T01:26:59.369Z,1014.57
2017-11-01T01:27:59.313Z,1014.57
2017-11-01T01:28:59.244Z,1014.58
2017-11-01T01:29:59.185Z,1014.61
2017-11-01T01:30:59.128Z,1014.59
2017-11-01T01:31:59.074Z,1014.56
2017-11-01T01:32:59.013Z,1014.56
2017-11-01T01:33:58.953Z,1014.56
2017-11-01T01:34:58.898Z,1014.53
2017-11-01T01:35:58.843Z,1014.54
2017-11-01T01:36:58.850Z,1014.51
2017-11-01T01:37:58.711Z,1014.51
2017-11-01T01:38:58.653Z,1014.50
2017-11-01T01:39:58.590Z,1014.54
2017-11-01T01:40:58.535Z,1014.55
2017-11-01T01:41:58.484Z,1014.52
2017-11-01T01:42:58.410Z,1014.49
2017-11-01T01:43:58.351Z,1014.52
2017-11-01T01:44:58.297Z,1014.46
2017-11-01T01:45:58.234Z,1014.48
2017-11-01T01:46:58.173Z,1014.49
2017-11-01T01:47:58.122Z,1014.41
2017-11-01T01:48:58.071Z,1014.40
2017-11-01T01:49:57.995Z,1014.41
2017-11-01T01:50:57.935Z,1014.39
2017-11-01T01:51:57.874Z,1014.47
2017-11-01T01:52:57.827Z,1014.41
2017-11-01T01:53:57.748Z,1014.44
2017-11-01T01:54:57.687Z,1014.41
2017-11-01T01:55:57.631Z,1014.46
2017-11-01T01:56:57.574Z,1014.41
2017-11-01T01:57:57.518Z,1014.38
2017-11-01T01:58:57.457Z,1014.43
2017-11-01T01:59:57.401Z,1014.39
2017-11-01T02:00:57.347Z,1014.41
2017-11-01T02:01:57.270Z,1014.39
2017-11-01T02:02:57.214Z,1014.39
2017-11-01T02:03:57.160Z,1014.36
2017-11-01T02:04:57.088Z,1014.36
2017-11-01T02:05:57.027Z,1014.32
2017-11-01T02:06:56.968Z,1014.39
2017-11-01T02:07:56.911Z,1014.40
2017-11-01T02:08:56.856Z,1014.32
2017-11-01T02:09:56.794Z,1014.30
2017-11-01T02:10:56.735Z,1014.35
2017-11-01T02:11:56.683Z,1014.33
2017-11-01T02:12:56.626Z,1014.29
2017-11-01T02:13:56.571Z,1014.28
2017-11-01T02:14:56.495Z,1014.26
2017-11-01T02:15:56.434Z,1014.26
2017-11-01T02:16:56.372Z,1014.26
2017-11-01T02:17:56.305Z,1014.29
2017-11-01T02:18:56.247Z,1014.23
2017-11-01T02:19:56.189Z,1014.24
2017-11-01T02:20:56.131Z,1014.21
2017-11-01T02:21:56.072Z,1014.18
2017-11-01T02:22:56.015Z,1014.19
2017-11-01T02:23:55.960Z,1014.17
2017-11-01T02:24:55.904Z,1014.18
2017-11-01T02:25:55.854Z,1014.13
2017-11-01T02:26:55.776Z,1014.13
2017-11-01T02:27:55.712Z,1014.13
2017-11-01T02:28:55.646Z,1014.11
2017-11-01T02:29:55.585Z,1014.09
2017-11-01T02:30:55.525Z,1014.10
2017-11-01T02:31:55.468Z,1014.06
2017-11-01T02:32:55.411Z,1014.02
2017-11-01T02:33:55.350Z,1014.01
2017-11-01T02:34:55.295Z,1014.01
2017-11-01T02:35:55.238Z,1013.98
2017-11-01T02:36:55.183Z,1014.02
2017-11-01T02:37:55.133Z,1013.99
2017-11-01T02:38:55.050Z,1013.98
2017-11-01T02:39:55.020Z,1013.97
2017-11-01T02:40:54.929Z,1013.95
2017-11-01T02:41:54.864Z,1013.94
2017-11-01T02:42:54.805Z,1013.96
2017-11-01T02:43:54.748Z,1013.94
2017-11-01T02:44:54.691Z,1013.92
2017-11-01T02:45:54.629Z,1013.95
2017-11-01T02:46:54.571Z,1013.95
2017-11-01T02:47:54.509Z,1013.89
2017-11-01T02:48:54.463Z,1013.90
2017-11-01T02:49:54.389Z,1013.91
2017-11-01T02:50:54.323Z,1013.89
2017-11-01T02:51:54.267Z,1013.91
2017-11-01T02:52:54.209Z,1013.87
2017-11-01T02:53:54.148Z,1013.86
2017-11-01T02:54:54.088Z,1013.88
2017-11-01T02:55:54.025Z,1013.90
2017-11-01T02:56:53.972Z,1013.91
2017-11-01T02:57:53.916Z,1013.84
2017-11-01T02:58:53.856Z,1013.87
2017-11-01T02:59:53.803Z,1013.87
2017-11-01T03:00:53.745Z,1013.91
2017-11-01T03:01:53.667Z,1013.85
2017-11-01T03:02:53.607Z,1013.91
2017-11-01T03:03:53.547Z,1013.88
2017-11-01T03:04:53.486Z,1013.86
2017-11-01T03:05:53.422Z,1013.90
2017-11-01T03:06:53.362Z,1013.87
2017-11-01T03:07:53.305Z,1013.85
2017-11-01T03:08:53.245Z,1013.87
2017-11-01T03:09:53.187Z,1013.86
2017-11-01T03:10:53.140Z,1013.80
2017-11-01T03:11:53.075Z,1013.87
2017-11-01T03:12:53.021Z,1013.82
2017-11-01T03:13:52.946Z,1013.81
2017-11-01T03:14:52.885Z,1013.82
2017-11-01T03:15:52.827Z,1013.79
2017-11-01T03:16:52.764Z,1013.77
2017-11-01T03:17:52.698Z,1013.80
2017-11-01T03:18:52.640Z,1013.79
2017-11-01T03:19:52.582Z,1013.78
2017-11-01T03:20:52.523Z,1013.74
2017-11-01T03:21:52.467Z,1013.79
2017-11-01T03:22:52.409Z,1013.81
2017-11-01T03:23:52.354Z,1013.75
2017-11-01T03:24:52.303Z,1013.79
2017-11-01T03:25:52.222Z,1013.75
2017-11-01T03:26:52.170Z,1013.73
2017-11-01T03:27:52.101Z,1013.72
2017-11-01T03:28:52.044Z,1013.67
2017-11-01T03:29:51.976Z,1013.69
2017-11-01T03:30:51.919Z,1013.64
2017-11-01T03:31:51.863Z,1013.69
2017-11-01T03:32:51.800Z,1013.66
2017-11-01T03:33:51.744Z,1013.67
2017-11-01T03:34:51.689Z,1013.62
2017-11-01T03:35:51.636Z,1013.63
2017-11-01T03:36:51.558Z,1013.61
2017-11-01T03:37:51.502Z,1013.59
2017-11-01T03:38:51.447Z,1013.59
2017-11-01T03:39:51.381Z,1013.60
2017-11-01T03:40:51.314Z,1013.64
2017-11-01T03:41:51.260Z,1013.63
2017-11-01T03:42:51.197Z,1013.57
2017-11-01T03:43:51.140Z,1013.58
2017-11-01T03:44:51.080Z,1013.57
2017-11-01T03:45:51.023Z,1013.54
2017-11-01T03:46:50.959Z,1013.59
2017-11-01T03:47:50.913Z,1013.52
2017-11-01T03:48:50.858Z,1013.51
2017-11-01T03:49:50.778Z,1013.51
2017-11-01T03:50:50.718Z,1013.47
2017-11-01T03:51:50.657Z,1013.50
2017-11-01T03:52:50.591Z,1013.45
2017-11-01T03:53:50.533Z,1013.48
2017-11-01T03:54:50.476Z,1013.48
2017-11-01T03:55:50.417Z,1013.49
2017-11-01T03:56:50.358Z,1013.49
2017-11-01T03:57:50.302Z,1013.47
2017-11-01T03:58:50.246Z,1013.48
2017-11-01T03:59:50.192Z,1013.51
2017-11-01T04:00:50.118Z,1013.47
2017-11-01T04:01:50.059Z,1013.46
2017-11-01T04:02:49.997Z,1013.48
2017-11-01T04:03:49.938Z,1013.48
2017-11-01T04:04:49.889Z,1013.47
2017-11-01T04:05:49.812Z,1013.45
2017-11-01T04:06:49.754Z,1013.44
2017-11-01T04:07:49.701Z,1013.44
2017-11-01T04:08:49.637Z,1013.45
2017-11-01T04:09:49.580Z,1013.46
2017-11-01T04:10:49.526Z,1013.45
2017-11-01T04:11:49.471Z,1013.48
2017-11-01T04:12:49.394Z,1013.42
2017-11-01T04:13:49.337Z,1013.41
2017-11-01T04:14:49.283Z,1013.39
2017-11-01T04:15:49.210Z,1013.38
2017-11-01T04:16:49.149Z,1013.38
2017-11-01T04:17:49.088Z,1013.34
2017-11-01T04:18:49.032Z,1013.34
2017-11-01T04:19:48.976Z,1013.44
2017-11-01T04:20:48.915Z,1013.35
2017-11-01T04:21:48.860Z,1013.36
2017-11-01T04:22:48.805Z,1013.34
2017-11-01T04:23:48.750Z,1013.37
2017-11-01T04:24:48.673Z,1013.31
2017-11-01T04:25:48.615Z,1013.33
2017-11-01T04:26:48.556Z,1013.35
2017-11-01T04:27:48.498Z,1013.34
2017-11-01T04:28:48.429Z,1013.37
2017-11-01T04:29:48.373Z,1013.35
2017-11-01T04:30:48.312Z,1013.33
2017-11-01T04:31:49.449Z,1013.35
2017-11-01T04:32:49.947Z,1013.34
2017-11-01T04:33:49.946Z,1013.34
2017-11-01T04:34:50.948Z,1013.30
2017-11-01T04:35:51.448Z,1013.31
2017-11-01T04:36:52.451Z,1013.27
2017-11-01T04:37:56.958Z,1013.32
2017-11-01T04:38:49.455Z,1013.28
2017-11-01T04:39:49.956Z,1013.25
2017-11-01T04:40:50.950Z,1013.28
2017-11-01T04:41:48.451Z,1013.25
2017-11-01T04:43:03.950Z,1013.28
2017-11-01T04:44:12.458Z,1013.27
2017-11-01T04:44:49.951Z,1013.25
2017-11-01T04:45:55.452Z,1013.26
2017-11-01T04:46:55.457Z,1013.27
2017-11-01T04:47:49.451Z,1013.30
2017-11-01T04:48:48.951Z,1013.28
2017-11-01T04:49:53.452Z,1013.30
2017-11-01T04:51:02.951Z,1013.28
2017-11-01T04:51:47.051Z,1013.22
2017-11-01T04:52:46.984Z,1013.27
2017-11-01T04:53:46.926Z,1013.26
2017-11-01T04:54:46.872Z,1013.22
2017-11-01T04:55:46.814Z,1013.24
2017-11-01T04:56:46.752Z,1013.23
2017-11-01T04:57:46.697Z,1013.19
2017-11-01T04:58:46.641Z,1013.18
2017-11-01T04:59:46.572Z,1013.17
2017-11-01T05:00:46.511Z,1013.20
2017-11-01T05:01:46.447Z,1013.20
2017-11-01T05:02:46.390Z,1013.17
2017-11-01T05:03:46.330Z,1013.19
2017-11-01T05:04:46.275Z,1013.23
2017-11-01T05:05:46.209Z,1013.18
2017-11-01T05:06:46.149Z,1013.15
2017-11-01T05:07:46.091Z,1013.16
2017-11-01T05:08:46.031Z,1013.19
2017-11-01T05:09:45.983Z,1013.11
2017-11-01T05:10:45.921Z,1013.14
2017-11-01T05:11:45.866Z,1013.13
2017-11-01T05:12:45.791Z,1013.11
2017-11-01T05:13:45.732Z,1013.12
2017-11-01T05:14:45.671Z,1013.12
2017-11-01T05:15:45.612Z,1013.09
2017-11-01T05:16:45.543Z,1013.07
2017-11-01T05:17:45.487Z,1013.07
2017-11-01T05:18:45.428Z,1013.08
2017-11-01T05:19:45.371Z,1013.00
2017-11-01T05:20:45.323Z,1013.04
2017-11-01T05:21:45.255Z,1013.06
2017-11-01T05:22:45.200Z,1013.00
2017-11-01T05:23:45.145Z,1013.02
2017-11-01T05:24:45.069Z,1013.02
2017-11-01T05:25:45.012Z,1013.03
2017-11-01T05:26:44.952Z,1012.95
2017-11-01T05:27:44.884Z,1012.99
2017-11-01T05:28:44.824Z,1012.96
2017-11-01T05:29:44.765Z,1012.93
2017-11-01T05:30:44.707Z,1012.96
2017-11-01T05:31:44.648Z,1012.96
2017-11-01T05:32:44.617Z,1012.90
2017-11-01T05:33:44.535Z,1012.89
2017-11-01T05:34:44.478Z,1012.90
2017-11-01T05:35:44.425Z,1012.93
2017-11-01T05:36:44.350Z,1012.87
2017-11-01T05:37:44.287Z,1012.88
2017-11-01T05:38:44.228Z,1012.85
2017-11-01T05:39:44.169Z,1012.85
2017-11-01T05:40:44.102Z,1012.83
2017-11-01T05:41:44.046Z,1012.79
2017-11-01T05:42:43.986Z,1012.76
2017-11-01T05:43:43.928Z,1012.80
2017-11-01T05:44:43.872Z,1012.81
2017-11-01T05:45:43.817Z,1012.78
2017-11-01T05:46:43.758Z,1012.74
2017-11-01T05:47:43.704Z,1012.77
2017-11-01T05:48:43.633Z,1012.76
2017-11-01T05:49:43.569Z,1012.75
2017-11-01T05:50:43.510Z,1012.68
2017-11-01T05:51:43.448Z,1012.72
2017-11-01T05:52:43.382Z,1012.69
2017-11-01T05:53:43.325Z,1012.72
2017-11-01T05:54:43.265Z,1012.66
2017-11-01T05:55:43.211Z,1012.67
2017-11-01T05:56:43.148Z,1012.73
2017-11-01T05:57:43.092Z,1012.74
2017-11-01T05:58:43.038Z,1012.72
2017-11-01T05:59:42.982Z,1012.70
2017-11-01T06:00:42.929Z,1012.69
2017-11-01T06:01:42.848Z,1012.66
2017-11-01T06:02:42.785Z,1012.66
2017-11-01T06:03:42.730Z,1012.66
2017-11-01T06:04:42.664Z,1012.62
2017-11-01T06:05:42.602Z,1012.65
2017-11-01T06:06:42.546Z,1012.65
2017-11-01T06:07:42.489Z,1012.70
2017-11-01T06:08:42.430Z,1012.67
2017-11-01T06:09:42.371Z,1012.75
2017-11-01T06:10:42.317Z,1012.69
2017-11-01T06:11:42.261Z,1012.74
2017-11-01T06:12:42.187Z,1012.74
2017-11-01T06:13:42.128Z,1012.76
2017-11-01T06:14:42.069Z,1012.75
2017-11-01T06:15:42.008Z,1012.73
2017-11-01T06:16:41.942Z,1012.74
2017-11-01T06:17:41.885Z,1012.76
2017-11-01T06:18:41.825Z,1012.74
2017-11-01T06:19:41.769Z,1012.74
2017-11-01T06:20:41.710Z,1012.76
2017-11-01T06:21:41.651Z,1012.79
2017-11-01T06:22:41.595Z,1012.73
2017-11-01T06:23:41.541Z,1012.76
2017-11-01T06:24:41.487Z,1012.76
2017-11-01T06:25:41.409Z,1012.77
2017-11-01T06:26:41.353Z,1012.78
2017-11-01T06:27:41.287Z,1012.76
2017-11-01T06:28:41.230Z,1012.81
2017-11-01T06:29:41.163Z,1012.78
2017-11-01T06:30:41.111Z,1012.77
2017-11-01T06:31:41.047Z,1012.80
2017-11-01T06:32:41.005Z,1012.84
2017-11-01T06:33:40.930Z,1012.80
2017-11-01T06:34:40.876Z,1012.79
2017-11-01T06:35:40.819Z,1012.84
2017-11-01T06:36:40.765Z,1012.82
2017-11-01T06:37:40.690Z,1012.79
2017-11-01T06:38:40.641Z,1012.79
2017-11-01T06:39:40.571Z,1012.77
2017-11-01T06:40:40.520Z,1012.77
2017-11-01T06:41:40.458Z,1012.84
2017-11-01T06:42:40.387Z,1012.79
2017-11-01T06:43:40.332Z,1012.81
2017-11-01T06:44:40.286Z,1012.85
2017-11-01T06:45:40.214Z,1012.86
2017-11-01T06:46:40.154Z,1012.84
2017-11-01T06:47:40.099Z,1012.84
2017-11-01T06:48:40.030Z,1012.85
2017-11-01T06:49:39.990Z,1012.90
2017-11-01T06:50:39.914Z,1012.92
2017-11-01T06:51:39.851Z,1012.90
2017-11-01T06:52:39.794Z,1012.98
2017-11-01T06:53:39.732Z,1012.97
2017-11-01T06:54:39.703Z,1012.97
2017-11-01T06:55:39.608Z,1012.96
2017-11-01T06:56:39.552Z,1012.97
2017-11-01T06:57:39.506Z,1012.98
2017-11-01T06:58:39.441Z,1012.96
2017-11-01T06:59:39.379Z,1012.96
2017-11-01T07:00:39.323Z,1012.95
2017-11-01T07:01:39.268Z,1012.99
2017-11-01T07:02:39.190Z,1012.97
2017-11-01T07:03:39.137Z,1012.97
2017-11-01T07:04:39.079Z,1012.99
2017-11-01T07:05:39.009Z,1012.98
2017-11-01T07:06:38.946Z,1013.02
2017-11-01T07:07:38.887Z,1013.04
2017-11-01T07:08:38.830Z,1013.04
2017-11-01T07:09:38.779Z,1013.00
2017-11-01T07:10:38.717Z,1013.05
2017-11-01T07:11:38.659Z,1013.01
2017-11-01T07:12:38.615Z,1012.99
2017-11-01T07:13:38.531Z,1013.02
2017-11-01T07:14:38.478Z,1012.99
2017-11-01T07:15:38.423Z,1013.00
2017-11-01T07:16:40.028Z,1013.04
2017-11-01T07:17:38.293Z,1013.01
2017-11-01T07:18:38.232Z,1012.95
2017-11-01T07:19:38.168Z,1012.98
2017-11-01T07:20:38.111Z,1013.01
2017-11-01T07:21:38.052Z,1012.98
2017-11-01T07:22:38.007Z,1012.97
2017-11-01T07:23:37.937Z,1012.97
2017-11-01T07:24:37.881Z,1012.96
2017-11-01T07:25:37.827Z,1013.00
2017-11-01T07:26:37.770Z,1012.91
2017-11-01T07:27:37.698Z,1012.90
2017-11-01T07:28:37.632Z,1012.96
2017-11-01T07:29:37.571Z,1012.94
2017-11-01T07:30:37.521Z,1012.92
2017-11-01T07:31:37.454Z,1012.91
2017-11-01T07:32:37.396Z,1012.88
2017-11-01T07:33:37.341Z,1012.93
2017-11-01T07:34:37.279Z,1012.97
2017-11-01T07:35:37.217Z,1012.96
2017-11-01T07:36:37.162Z,1012.91
2017-11-01T07:37:37.107Z,1012.97
2017-11-01T07:38:37.051Z,1012.98
2017-11-01T07:39:36.981Z,1012.97
2017-11-01T07:40:36.917Z,1012.98
2017-11-01T07:41:36.855Z,1012.95
2017-11-01T07:42:36.792Z,1013.00
2017-11-01T07:43:36.740Z,1013.03
2017-11-01T07:44:36.686Z,1013.01
2017-11-01T07:45:36.615Z,1012.99
2017-11-01T07:46:36.555Z,1012.98
2017-11-01T07:47:36.499Z,1012.94
2017-11-01T07:48:36.440Z,1012.97
2017-11-01T07:49:36.385Z,1012.96
2017-11-01T07:50:36.332Z,1012.98
2017-11-01T07:51:36.254Z,1012.94
2017-11-01T07:52:36.220Z,1012.97
2017-11-01T07:53:36.138Z,1012.99
2017-11-01T07:54:36.079Z,1012.95
2017-11-01T07:55:36.018Z,1012.96
2017-11-01T07:56:35.964Z,1012.94
2017-11-01T07:57:35.898Z,1012.93
2017-11-01T07:58:35.841Z,1012.92
2017-11-01T07:59:35.793Z,1012.95
2017-11-01T08:00:35.730Z,1012.95
2017-11-01T08:01:35.688Z,1012.94
2017-11-01T08:02:35.612Z,1012.90
2017-11-01T08:03:35.556Z,1012.96
2017-11-01T08:04:35.509Z,1012.92
2017-11-01T08:05:35.430Z,1012.94
2017-11-01T08:06:35.365Z,1012.90
2017-11-01T08:07:35.320Z,1012.96
2017-11-01T08:08:35.244Z,1012.97
2017-11-01T08:09:35.228Z,1012.95
2017-11-01T08:10:35.124Z,1012.97
2017-11-01T08:11:35.067Z,1012.97
2017-11-01T08:12:35.018Z,1012.94
2017-11-01T08:13:34.950Z,1012.95
2017-11-01T08:14:34.889Z,1012.97
2017-11-01T08:15:34.839Z,1012.95
2017-11-01T08:16:34.766Z,1012.87
2017-11-01T08:17:34.723Z,1012.92
2017-11-01T08:18:34.648Z,1012.93
2017-11-01T08:19:34.589Z,1012.91
2017-11-01T08:20:34.563Z,1012.91
2017-11-01T08:21:34.483Z,1012.86
2017-11-01T08:22:34.413Z,1012.93
2017-11-01T08:23:34.348Z,1012.88
2017-11-01T08:24:34.293Z,1012.89
2017-11-01T08:25:34.253Z,1012.86
2017-11-01T08:26:34.195Z,1012.93
2017-11-01T08:27:34.129Z,1012.88
2017-11-01T08:28:34.058Z,1012.91
2017-11-01T08:29:34.003Z,1012.93
2017-11-01T08:30:33.950Z,1012.93
2017-11-01T08:31:33.881Z,1012.96
2017-11-01T08:32:33.812Z,1012.91
2017-11-01T08:33:33.754Z,1012.94
2017-11-01T08:34:33.699Z,1012.95
2017-11-01T08:35:33.628Z,1012.97
2017-11-01T08:36:33.577Z,1012.95
2017-11-01T08:37:33.517Z,1012.90
2017-11-01T08:38:33.455Z,1012.96
2017-11-01T08:39:33.399Z,1012.97
2017-11-01T08:40:33.345Z,1012.97
2017-11-01T08:41:33.283Z,1012.97
2017-11-01T08:42:33.228Z,1012.94
2017-11-01T08:43:33.179Z,1012.99
2017-11-01T08:44:33.099Z,1012.99
2017-11-01T08:45:33.072Z,1012.92
2017-11-01T08:46:32.986Z,1012.93
2017-11-01T08:47:32.916Z,1012.94
2017-11-01T08:48:32.907Z,1012.99
2017-11-01T08:49:32.814Z,1012.95
2017-11-01T08:50:32.737Z,1012.87
2017-11-01T08:51:32.693Z,1012.90
2017-11-01T08:52:32.621Z,1012.93
2017-11-01T08:53:32.568Z,1012.94
2017-11-01T08:54:32.510Z,1012.95
2017-11-01T08:55:32.455Z,1012.91
2017-11-01T08:56:32.398Z,1012.87
2017-11-01T08:57:32.341Z,1012.92
2017-11-01T08:58:32.275Z,1012.95
2017-11-01T08:59:32.210Z,1012.98
2017-11-01T09:00:32.146Z,1012.99
2017-11-01T09:01:32.096Z,1012.91
2017-11-01T09:02:32.042Z,1012.91
2017-11-01T09:03:31.992Z,1012.90
2017-11-01T09:04:31.908Z,1012.92
2017-11-01T09:05:31.855Z,1013.00
2017-11-01T09:06:31.802Z,1012.96
2017-11-01T09:07:31.745Z,1012.99
2017-11-01T09:08:31.669Z,1013.00
2017-11-01T09:09:31.623Z,1012.93
2017-11-01T09:10:31.572Z,1012.96
2017-11-01T09:11:31.512Z,1012.94
2017-11-01T09:12:31.432Z,1012.97
2017-11-01T09:13:31.380Z,1012.97
2017-11-01T09:14:31.320Z,1012.94
2017-11-01T09:15:31.254Z,1012.93
2017-11-01T09:16:31.188Z,1012.95
2017-11-01T09:17:31.132Z,1012.94
2017-11-01T09:18:31.074Z,1012.97
2017-11-01T09:19:31.025Z,1013.05
2017-11-01T09:20:30.976Z,1013.11
2017-11-01T09:21:30.907Z,1013.07
2017-11-01T09:22:30.855Z,1013.04
2017-11-01T09:23:30.792Z,1013.02
2017-11-01T09:24:30.736Z,1012.93
2017-11-01T09:25:30.684Z,1012.96
2017-11-01T09:26:30.605Z,1012.97
2017-11-01T09:27:30.551Z,1012.99
2017-11-01T09:28:30.494Z,1013.04
2017-11-01T09:29:30.432Z,1013.03
2017-11-01T09:30:30.359Z,1012.99
2017-11-01T09:31:30.311Z,1012.99
2017-11-01T09:32:30.246Z,1012.94
2017-11-01T09:33:30.197Z,1012.97
2017-11-01T09:34:30.150Z,1012.97
2017-11-01T09:35:30.073Z,1012.98
2017-11-01T09:36:30.018Z,1013.00
2017-11-01T09:37:29.979Z,1012.94
2017-11-01T09:38:29.906Z,1012.88
2017-11-01T09:39:29.853Z,1012.91
2017-11-01T09:40:29.774Z,1012.95
2017-11-01T09:41:29.713Z,1013.02
2017-11-01T09:42:29.708Z,1013.03
2017-11-01T09:43:29.614Z,1012.94
2017-11-01T09:44:29.538Z,1012.93
2017-11-01T09:45:29.473Z,1012.97
2017-11-01T09:46:29.426Z,1012.96
2017-11-01T09:47:29.370Z,1012.96
2017-11-01T09:48:29.300Z,1012.98
2017-11-01T09:49:29.247Z,1012.96
2017-11-01T09:50:29.189Z,1012.98
2017-11-01T09:51:29.131Z,1012.98
2017-11-01T09:52:29.080Z,1012.96
2017-11-01T09:53:29.022Z,1012.96
2017-11-01T09:54:28.972Z,1012.93
2017-11-01T09:55:28.888Z,1012.98
2017-11-01T09:56:28.826Z,1012.95
2017-11-01T09:57:31.035Z,1012.97
2017-11-01T09:58:30.267Z,1012.98
2017-11-01T09:59:31.530Z,1012.94
2017-11-01T10:00:30.541Z,1012.90
2017-11-01T10:01:31.030Z,1012.96
2017-11-01T10:02:30.034Z,1012.96
2017-11-01T10:03:31.033Z,1012.92
2017-11-01T10:04:31.033Z,1012.96
2017-11-01T10:05:50.535Z,1012.93
2017-11-01T10:06:30.537Z,1012.88
2017-11-01T10:07:29.439Z,1012.96
2017-11-01T10:08:37.031Z,1012.90
2017-11-01T10:09:32.533Z,1012.94
2017-11-01T10:10:35.532Z,1012.93
2017-11-01T10:11:34.534Z,1012.97
2017-11-01T10:12:32.033Z,1012.96
2017-11-01T10:15:08.351Z,1012.91
2017-11-01T10:16:08.279Z,1012.90
2017-11-01T10:18:00.028Z,1012.86
2017-11-01T10:18:59.972Z,1012.89
2017-11-01T10:20:51.741Z,1012.81
2017-11-01T10:21:51.674Z,1012.82
2017-11-01T10:23:43.445Z,1012.79
2017-11-01T10:24:43.388Z,1012.81
2017-11-01T10:26:35.127Z,1012.77
2017-11-01T10:27:35.064Z,1012.76
2017-11-01T10:29:28.385Z,1012.76
2017-11-01T10:30:28.284Z,1012.74
2017-11-01T10:31:28.228Z,1012.75
2017-11-01T10:32:28.184Z,1012.73
2017-11-01T10:33:28.095Z,1012.73
2017-11-01T10:34:28.035Z,1012.71
2017-11-01T10:35:27.976Z,1012.70
2017-11-01T10:36:27.919Z,1012.69
2017-11-01T10:37:27.863Z,1012.68
2017-11-01T10:38:27.794Z,1012.72
2017-11-01T10:39:27.736Z,1012.65
2017-11-01T10:40:27.680Z,1012.66
2017-11-01T10:41:27.623Z,1012.73
2017-11-01T10:42:27.564Z,1012.64
2017-11-01T10:43:27.516Z,1012.65
2017-11-01T10:44:27.452Z,1012.59
2017-11-01T10:45:27.399Z,1012.61
2017-11-01T10:46:27.342Z,1012.63
2017-11-01T10:47:27.291Z,1012.61
2017-11-01T10:48:27.211Z,1012.64
2017-11-01T10:49:27.150Z,1012.63
2017-11-01T10:50:27.092Z,1012.62
2017-11-01T10:51:27.034Z,1012.65
2017-11-01T10:52:26.969Z,1012.61
2017-11-01T10:53:26.911Z,1012.61
2017-11-01T10:54:26.857Z,1012.64
2017-11-01T10:55:26.802Z,1012.61
2017-11-01T10:56:26.739Z,1012.62
2017-11-01T10:57:26.681Z,1012.66
2017-11-01T10:58:26.623Z,1012.64
2017-11-01T10:59:26.567Z,1012.56
2017-11-01T11:00:26.513Z,1012.67
2017-11-01T11:01:26.458Z,1012.63
2017-11-01T11:02:26.405Z,1012.66
2017-11-01T11:03:26.330Z,1012.61
2017-11-01T11:04:26.266Z,1012.61
2017-11-01T11:05:26.210Z,1012.55
2017-11-01T11:06:26.155Z,1012.59
2017-11-01T11:07:26.090Z,1012.54
2017-11-01T11:08:26.028Z,1012.57
2017-11-01T11:09:25.970Z,1012.53
2017-11-01T11:10:25.932Z,1012.51
2017-11-01T11:11:25.855Z,1012.56
2017-11-01T11:12:25.797Z,1012.56
2017-11-01T11:13:25.741Z,1012.57
2017-11-01T11:14:25.683Z,1012.55
2017-11-01T11:15:25.628Z,1012.57
2017-11-01T11:16:25.575Z,1012.53
2017-11-01T11:17:25.521Z,1012.51
2017-11-01T11:18:25.463Z,1012.49
2017-11-01T11:19:25.386Z,1012.49
2017-11-01T11:20:25.321Z,1012.49
2017-11-01T11:21:25.269Z,1012.43
2017-11-01T11:22:25.229Z,1012.48
2017-11-01T11:23:25.146Z,1012.45
2017-11-01T11:24:25.088Z,1012.46
2017-11-01T11:25:25.046Z,1012.42
2017-11-01T11:26:24.990Z,1012.43
2017-11-01T11:27:24.919Z,1012.44
2017-11-01T11:28:24.856Z,1012.43
2017-11-01T11:29:24.803Z,1012.45
2017-11-01T11:30:24.742Z,1012.43
2017-11-01T11:31:24.690Z,1012.48
2017-11-01T11:32:24.634Z,1012.48
2017-11-01T11:33:24.578Z,1012.52
2017-11-01T11:34:24.524Z,1012.49
2017-11-01T11:35:24.475Z,1012.47
2017-11-01T11:36:24.389Z,1012.41
2017-11-01T11:37:24.329Z,1012.43
2017-11-01T11:38:24.272Z,1012.38
2017-11-01T11:39:24.211Z,1012.41
2017-11-01T11:40:24.154Z,1012.44
2017-11-01T11:41:24.092Z,1012.36
2017-11-01T11:42:24.041Z,1012.40
2017-11-01T11:43:23.977Z,1012.36
2017-11-01T11:44:23.919Z,1012.36
2017-11-01T11:45:23.860Z,1012.35
2017-11-01T11:46:23.803Z,1012.34
2017-11-01T11:47:23.743Z,1012.34
2017-11-01T11:48:23.694Z,1012.31
2017-11-01T11:49:23.645Z,1012.29
2017-11-01T11:50:23.585Z,1012.31
2017-11-01T11:51:23.530Z,1012.27
2017-11-01T11:52:23.451Z,1012.26
2017-11-01T11:53:23.396Z,1012.27
2017-11-01T11:54:23.339Z,1012.28
2017-11-01T11:55:23.275Z,1012.25
2017-11-01T11:56:23.215Z,1012.23
2017-11-01T11:57:23.163Z,1012.25
2017-11-01T11:58:23.096Z,1012.20
2017-11-01T11:59:23.045Z,1012.21
2017-11-01T12:00:22.981Z,1012.24
2017-11-01T12:01:22.925Z,1012.25
2017-11-01T12:02:22.865Z,1012.20
2017-11-01T12:03:22.811Z,1012.23
2017-11-01T12:04:22.755Z,1012.19
2017-11-01T12:05:22.702Z,1012.25
2017-11-01T12:06:22.645Z,1012.21
2017-11-01T12:07:22.577Z,1012.26
2017-11-01T12:08:22.520Z,1012.22
2017-11-01T12:09:22.464Z,1012.31
2017-11-01T12:10:22.400Z,1012.33